sensor_id;sensor_type;location;lat;lon;timestamp;pressure;altitude;pressure_sealevel;temperature;humidity
57990;BME280;58373;51.824;5.564;2022-08-20T00:00:59;101478.66;;;19.24;95.47
57990;BME280;58373;51.824;5.564;2022-08-20T00:08:23;101477.03;;;19.23;95.50
57990;BME280;58373;51.824;5.564;2022-08-20T00:10:51;101484.25;;;19.21;95.95
57990;BME280;58373;51.824;5.564;2022-08-20T00:13:20;101480.31;;;19.25;95.86
57990;BME280;58373;51.824;5.564;2022-08-20T00:15:47;101473.72;;;19.21;96.04
57990;BME280;58373;51.824;5.564;2022-08-20T00:18:13;101466.00;;;19.19;96.16
57990;BME280;58373;51.824;5.564;2022-08-20T00:20:43;101473.41;;;19.16;96.26
57990;BME280;58373;51.824;5.564;2022-08-20T00:23:09;101478.16;;;19.20;96.01
57990;BME280;58373;51.824;5.564;2022-08-20T00:25:34;101476.34;;;19.21;95.84
57990;BME280;58373;51.824;5.564;2022-08-20T00:28:00;101479.31;;;19.18;95.94
57990;BME280;58373;51.824;5.564;2022-08-20T00:30:28;101473.72;;;19.21;95.77
57990;BME280;58373;51.824;5.564;2022-08-20T00:32:57;101478.66;;;19.24;95.34
57990;BME280;58373;51.824;5.564;2022-08-20T00:35:26;101476.69;;;19.26;95.32
57990;BME280;58373;51.824;5.564;2022-08-20T00:37:52;101480.97;;;19.19;95.79
57990;BME280;58373;51.824;5.564;2022-08-20T00:40:21;101469.16;;;19.06;96.13
57990;BME280;58373;51.824;5.564;2022-08-20T00:42:51;101477.69;;;19.17;96.14
57990;BME280;58373;51.824;5.564;2022-08-20T00:45:19;101483.78;;;19.17;96.26
57990;BME280;58373;51.824;5.564;2022-08-20T00:47:45;101473.56;;;19.14;96.59
57990;BME280;58373;51.824;5.564;2022-08-20T00:50:15;101477.69;;;19.17;96.41
57990;BME280;58373;51.824;5.564;2022-08-20T00:52:42;101472.75;;;19.14;96.21
57990;BME280;58373;51.824;5.564;2022-08-20T00:55:11;101475.72;;;19.19;96.01
57990;BME280;58373;51.824;5.564;2022-08-20T00:57:40;101466.16;;;19.09;96.20
57990;BME280;58373;51.824;5.564;2022-08-20T01:00:12;101472.41;;;19.25;95.87
57990;BME280;58373;51.824;5.564;2022-08-20T01:02:39;101479.47;;;19.24;95.80
57990;BME280;58373;51.824;5.564;2022-08-20T01:05:07;101469.47;;;19.12;95.86
57990;BME280;58373;51.824;5.564;2022-08-20T01:07:35;101471.09;;;19.13;96.18
57990;BME280;58373;51.824;5.564;2022-08-20T01:10:06;101483.63;;;19.10;96.77
57990;BME280;58373;51.824;5.564;2022-08-20T01:12:31;101475.41;;;19.05;96.88
57990;BME280;58373;51.824;5.564;2022-08-20T01:14:59;101477.34;;;19.20;96.62
57990;BME280;58373;51.824;5.564;2022-08-20T01:17:26;101467.44;;;19.38;95.38
57990;BME280;58373;51.824;5.564;2022-08-20T01:19:55;101471.25;;;19.35;95.16
57990;BME280;58373;51.824;5.564;2022-08-20T01:22:41;101473.56;;;19.39;95.27
57990;BME280;58373;51.824;5.564;2022-08-20T01:28:53;101468.47;;;19.21;96.25
57990;BME280;58373;51.824;5.564;2022-08-20T01:31:26;101472.75;;;19.22;95.92
57990;BME280;58373;51.824;5.564;2022-08-20T01:33:53;101468.16;;;19.07;96.51
57990;BME280;58373;51.824;5.564;2022-08-20T01:36:27;101471.44;;;19.09;96.58
57990;BME280;58373;51.824;5.564;2022-08-20T01:38:56;101464.03;;;19.13;96.20
57990;BME280;58373;51.824;5.564;2022-08-20T01:41:33;101466.19;;;19.18;96.18
57990;BME280;58373;51.824;5.564;2022-08-20T01:44:00;101466.50;;;19.23;95.35
57990;BME280;58373;51.824;5.564;2022-08-20T01:46:30;101471.09;;;19.13;96.13
57990;BME280;58373;51.824;5.564;2022-08-20T01:48:58;101470.44;;;19.19;95.97
57990;BME280;58373;51.824;5.564;2022-08-20T01:51:28;101467.81;;;19.19;95.18
57990;BME280;58373;51.824;5.564;2022-08-20T01:53:55;101469.47;;;19.20;94.97
57990;BME280;58373;51.824;5.564;2022-08-20T01:56:26;101468.81;;;19.18;95.58
57990;BME280;58373;51.824;5.564;2022-08-20T01:58:54;101473.75;;;19.04;96.07
57990;BME280;58373;51.824;5.564;2022-08-20T02:03:57;101469.81;;;19.00;96.49
57990;BME280;58373;51.824;5.564;2022-08-20T02:06:24;101480.97;;;19.02;96.56
57990;BME280;58373;51.824;5.564;2022-08-20T02:08:58;101472.13;;;18.87;96.83
57990;BME280;58373;51.824;5.564;2022-08-20T02:11:25;101471.94;;;18.97;96.72
57990;BME280;58373;51.824;5.564;2022-08-20T02:13:53;101465.84;;;18.80;97.29
57990;BME280;58373;51.824;5.564;2022-08-20T02:16:28;101473.06;;;18.78;97.80
57990;BME280;58373;51.824;5.564;2022-08-20T02:18:58;101468.13;;;18.75;97.86
57990;BME280;58373;51.824;5.564;2022-08-20T02:21:26;101480.97;;;18.78;98.22
57990;BME280;58373;51.824;5.564;2022-08-20T02:23:53;101475.69;;;18.86;97.83
57990;BME280;58373;51.824;5.564;2022-08-20T02:26:19;101470.78;;;18.83;98.02
57990;BME280;58373;51.824;5.564;2022-08-20T02:28:47;101480.47;;;18.82;97.56
57990;BME280;58373;51.824;5.564;2022-08-20T02:31:16;101468.50;;;18.88;97.35
57990;BME280;58373;51.824;5.564;2022-08-20T02:33:42;101475.41;;;18.81;96.95
57990;BME280;58373;51.824;5.564;2022-08-20T02:36:08;101481.94;;;18.77;97.21
57990;BME280;58373;51.824;5.564;2022-08-20T02:38:35;101468.13;;;18.75;96.99
57990;BME280;58373;51.824;5.564;2022-08-20T02:41:03;101484.25;;;18.72;97.07
57990;BME280;58373;51.824;5.564;2022-08-20T02:43:29;101481.94;;;18.77;96.79
57990;BME280;58373;51.824;5.564;2022-08-20T02:45:56;101484.72;;;18.67;96.68
57990;BME280;58373;51.824;5.564;2022-08-20T02:48:22;101475.72;;;18.70;96.23
57990;BME280;58373;51.824;5.564;2022-08-20T02:50:50;101482.91;;;18.68;96.38
57990;BME280;58373;51.824;5.564;2022-08-20T02:53:16;101485.16;;;18.63;96.11
57990;BME280;58373;51.824;5.564;2022-08-20T02:55:41;101490.41;;;18.63;96.18
57990;BME280;58373;51.824;5.564;2022-08-20T02:58:07;101482.53;;;18.63;96.14
57990;BME280;58373;51.824;5.564;2022-08-20T03:00:33;101484.56;;;18.69;96.25
57990;BME280;58373;51.824;5.564;2022-08-20T03:02:59;101491.06;;;18.56;96.78
57990;BME280;58373;51.824;5.564;2022-08-20T03:05:25;101481.91;;;18.69;96.71
57990;BME280;58373;51.824;5.564;2022-08-20T03:07:52;101482.75;;;18.69;96.74
57990;BME280;58373;51.824;5.564;2022-08-20T03:10:23;101483.72;;;18.68;97.17
57990;BME280;58373;51.824;5.564;2022-08-20T03:12:49;101477.81;;;18.74;96.75
57990;BME280;58373;51.824;5.564;2022-08-20T03:15:15;101478.97;;;18.72;97.47
57990;BME280;58373;51.824;5.564;2022-08-20T03:17:40;101470.28;;;18.71;96.91
57990;BME280;58373;51.824;5.564;2022-08-20T03:20:06;101468.31;;;18.73;96.98
57990;BME280;58373;51.824;5.564;2022-08-20T03:22:33;101470.47;;;18.70;97.33
57990;BME280;58373;51.824;5.564;2022-08-20T03:24:58;101470.94;;;18.73;97.07
57990;BME280;58373;51.824;5.564;2022-08-20T03:27:24;101463.16;;;18.64;97.17
57990;BME280;58373;51.824;5.564;2022-08-20T03:29:49;101474.38;;;18.74;96.60
57990;BME280;58373;51.824;5.564;2022-08-20T03:32:15;101472.09;;;18.71;97.03
57990;BME280;58373;51.824;5.564;2022-08-20T03:34:40;101479.59;;;18.66;97.06
57990;BME280;58373;51.824;5.564;2022-08-20T03:37:06;101487.50;;;18.74;96.57
57990;BME280;58373;51.824;5.564;2022-08-20T03:39:31;101489.16;;;18.75;96.45
57990;BME280;58373;51.824;5.564;2022-08-20T03:41:56;101487.22;;;18.77;96.06
57990;BME280;58373;51.824;5.564;2022-08-20T03:44:22;101487.22;;;18.77;96.07
57990;BME280;58373;51.824;5.564;2022-08-20T03:46:47;101483.75;;;18.76;96.08
57990;BME280;58373;51.824;5.564;2022-08-20T03:49:13;101490.00;;;18.75;96.42
57990;BME280;58373;51.824;5.564;2022-08-20T03:51:38;101484.56;;;18.69;97.50
57990;BME280;58373;51.824;5.564;2022-08-20T03:54:04;101481.94;;;18.77;97.21
57990;BME280;58373;51.824;5.564;2022-08-20T03:56:29;101479.31;;;18.77;96.49
57990;BME280;58373;51.824;5.564;2022-08-20T03:58:55;101478.63;;;18.58;97.83
57990;BME280;58373;51.824;5.564;2022-08-20T04:01:21;101481.56;;;18.64;97.97
57990;BME280;58373;51.824;5.564;2022-08-20T04:03:46;101480.25;;;18.60;97.84
57990;BME280;58373;51.824;5.564;2022-08-20T04:06:12;101480.56;;;18.56;98.26
57990;BME280;58373;51.824;5.564;2022-08-20T04:08:37;101482.53;;;18.54;98.85
57990;BME280;58373;51.824;5.564;2022-08-20T04:11:05;101486.81;;;18.55;98.93
57990;BME280;58373;51.824;5.564;2022-08-20T04:13:31;101490.41;;;18.63;98.78
57990;BME280;58373;51.824;5.564;2022-08-20T04:15:59;101491.75;;;18.67;99.13
57990;BME280;58373;51.824;5.564;2022-08-20T04:18:25;101495.09;;;18.85;97.79
57990;BME280;58373;51.824;5.564;2022-08-20T04:20:51;101498.38;;;18.71;99.13
57990;BME280;58373;51.824;5.564;2022-08-20T04:23:17;101495.09;;;18.77;98.67
57990;BME280;58373;51.824;5.564;2022-08-20T04:25:44;101494.09;;;18.78;99.06
57990;BME280;58373;51.824;5.564;2022-08-20T04:28:13;101499.00;;;18.65;99.77
57990;BME280;58373;51.824;5.564;2022-08-20T04:30:39;101491.75;;;18.67;99.72
57990;BME280;58373;51.824;5.564;2022-08-20T04:33:06;101492.44;;;18.69;99.36
57990;BME280;58373;51.824;5.564;2022-08-20T04:35:32;101509.88;;;18.70;99.53
57990;BME280;58373;51.824;5.564;2022-08-20T04:38:03;101506.69;;;18.66;99.28
57990;BME280;58373;51.824;5.564;2022-08-20T04:40:30;101506.34;;;18.61;98.79
57990;BME280;58373;51.824;5.564;2022-08-20T04:43:14;101507.81;;;18.64;98.62
57990;BME280;58373;51.824;5.564;2022-08-20T04:45:40;101503.22;;;18.57;98.38
57990;BME280;58373;51.824;5.564;2022-08-20T04:48:06;101516.03;;;18.52;98.75
57990;BME280;58373;51.824;5.564;2022-08-20T04:50:36;101510.75;;;18.44;98.48
57990;BME280;58373;51.824;5.564;2022-08-20T04:53:04;101509.75;;;18.45;98.03
57990;BME280;58373;51.824;5.564;2022-08-20T04:55:30;101517.63;;;18.37;98.00
57990;BME280;58373;51.824;5.564;2022-08-20T04:58:07;101517.47;;;18.39;98.64
57990;BME280;58373;51.824;5.564;2022-08-20T05:00:33;101524.88;;;18.43;97.53
57990;BME280;58373;51.824;5.564;2022-08-20T05:02:59;101533.69;;;18.34;97.80
57990;BME280;58373;51.824;5.564;2022-08-20T05:05:24;101530.94;;;18.36;97.23
57990;BME280;58373;51.824;5.564;2022-08-20T05:07:50;101533.31;;;18.21;96.95
57990;BME280;58373;51.824;5.564;2022-08-20T05:10:17;101542.88;;;18.30;96.84
57990;BME280;58373;51.824;5.564;2022-08-20T05:12:43;101539.19;;;18.15;96.51
57990;BME280;58373;51.824;5.564;2022-08-20T05:15:10;101530.78;;;18.03;96.27
57990;BME280;58373;51.824;5.564;2022-08-20T05:17:37;101552.31;;;18.07;96.50
57990;BME280;58373;51.824;5.564;2022-08-20T05:20:04;101545.06;;;18.09;96.26
57990;BME280;58373;51.824;5.564;2022-08-20T05:22:30;101549.69;;;18.15;95.88
57990;BME280;58373;51.824;5.564;2022-08-20T05:24:56;101547.38;;;18.12;96.05
57990;BME280;58373;51.824;5.564;2022-08-20T05:27:23;101542.00;;;18.13;95.92
57990;BME280;58373;51.824;5.564;2022-08-20T05:30:06;101537.38;;;18.07;95.91
57990;BME280;58373;51.824;5.564;2022-08-20T05:32:32;101550.13;;;18.02;95.84
57990;BME280;58373;51.824;5.564;2022-08-20T05:34:59;101546.72;;;18.10;95.70
57990;BME280;58373;51.824;5.564;2022-08-20T05:37:26;101548.69;;;18.08;95.43
57990;BME280;58373;51.824;5.564;2022-08-20T05:39:51;101555.38;;;18.02;95.74
57990;BME280;58373;51.824;5.564;2022-08-20T05:42:17;101556.50;;;17.99;95.18
57990;BME280;58373;51.824;5.564;2022-08-20T05:44:42;101556.22;;;18.02;94.20
57990;BME280;58373;51.824;5.564;2022-08-20T05:47:11;101549.94;;;17.95;94.73
57990;BME280;58373;51.824;5.564;2022-08-20T05:49:37;101565.00;;;17.93;94.88
57990;BME280;58373;51.824;5.564;2022-08-20T05:52:03;101554.84;;;17.98;95.29
57990;BME280;58373;51.824;5.564;2022-08-20T05:54:29;101569.16;;;18.04;94.49
57990;BME280;58373;51.824;5.564;2022-08-20T05:56:55;101559.50;;;18.04;94.42
57990;BME280;58373;51.824;5.564;2022-08-20T05:59:21;101560.19;;;18.15;93.79
57990;BME280;58373;51.824;5.564;2022-08-20T06:01:48;101560.66;;;18.10;92.60
57990;BME280;58373;51.824;5.564;2022-08-20T06:04:14;101567.09;;;18.16;92.01
57990;BME280;58373;51.824;5.564;2022-08-20T06:06:48;101565.13;;;18.18;92.12
57990;BME280;58373;51.824;5.564;2022-08-20T06:09:18;101575.97;;;18.15;91.27
57990;BME280;58373;51.824;5.564;2022-08-20T06:11:44;101570.03;;;18.13;91.58
57990;BME280;58373;51.824;5.564;2022-08-20T06:14:09;101567.41;;;18.13;91.55
57990;BME280;58373;51.824;5.564;2022-08-20T06:16:35;101570.03;;;18.13;91.46
57990;BME280;58373;51.824;5.564;2022-08-20T06:19:00;101573.50;;;18.13;90.07
57990;BME280;58373;51.824;5.564;2022-08-20T06:21:25;101578.59;;;18.15;90.01
57990;BME280;58373;51.824;5.564;2022-08-20T06:23:51;101574.31;;;18.14;90.38
57990;BME280;58373;51.824;5.564;2022-08-20T06:26:16;101575.97;;;18.15;89.66
57990;BME280;58373;51.824;5.564;2022-08-20T06:28:42;101577.28;;;18.19;89.42
57990;BME280;58373;51.824;5.564;2022-08-20T06:31:07;101571.72;;;18.22;90.02
57990;BME280;58373;51.824;5.564;2022-08-20T06:33:33;101575.16;;;18.22;89.26
57990;BME280;58373;51.824;5.564;2022-08-20T06:35:59;101574.03;;;18.25;88.58
57990;BME280;58373;51.824;5.564;2022-08-20T06:38:24;101580.31;;;18.32;89.06
57990;BME280;58373;51.824;5.564;2022-08-20T06:40:49;101579.84;;;18.37;89.38
57990;BME280;58373;51.824;5.564;2022-08-20T06:43:15;101585.28;;;18.43;89.06
57990;BME280;58373;51.824;5.564;2022-08-20T06:45:40;101579.69;;;18.46;88.17
57990;BME280;58373;51.824;5.564;2022-08-20T06:48:09;101584.94;;;18.46;87.44
57990;BME280;58373;51.824;5.564;2022-08-20T06:50:38;101583.50;;;18.52;87.07
57990;BME280;58373;51.824;5.564;2022-08-20T06:53:12;101591.38;;;18.52;86.58
57990;BME280;58373;51.824;5.564;2022-08-20T06:55:40;101594.00;;;18.52;87.36
57990;BME280;58373;51.824;5.564;2022-08-20T06:58:10;101601.75;;;18.62;86.55
57990;BME280;58373;51.824;5.564;2022-08-20T07:00:37;101598.53;;;18.68;87.25
57990;BME280;58373;51.824;5.564;2022-08-20T07:03:04;101593.47;;;18.74;85.54
57990;BME280;58373;51.824;5.564;2022-08-20T07:05:32;101593.81;;;18.79;85.20
57990;BME280;58373;51.824;5.564;2022-08-20T07:07:58;101587.06;;;18.77;85.78
57990;BME280;58373;51.824;5.564;2022-08-20T07:10:25;101600.22;;;18.85;84.93
57990;BME280;58373;51.824;5.564;2022-08-20T07:12:52;101597.94;;;18.90;84.60
57990;BME280;58373;51.824;5.564;2022-08-20T07:15:20;101602.88;;;18.93;84.18
57990;BME280;58373;51.824;5.564;2022-08-20T07:17:54;101604.19;;;18.97;82.11
57990;BME280;58373;51.824;5.564;2022-08-20T07:20:20;101602.25;;;18.99;82.55
57990;BME280;58373;51.824;5.564;2022-08-20T07:22:46;101604.22;;;19.14;82.58
57990;BME280;58373;51.824;5.564;2022-08-20T07:25:14;101607.84;;;19.13;78.80
57990;BME280;58373;51.824;5.564;2022-08-20T07:27:40;101607.84;;;19.13;77.11
57990;BME280;58373;51.824;5.564;2022-08-20T07:30:10;101613.09;;;19.21;78.45
57990;BME280;58373;51.824;5.564;2022-08-20T07:32:54;101623.00;;;19.35;81.30
57990;BME280;58373;51.824;5.564;2022-08-20T07:35:19;101617.75;;;19.35;79.75
57990;BME280;58373;51.824;5.564;2022-08-20T07:37:48;101620.03;;;19.30;80.49
57990;BME280;58373;51.824;5.564;2022-08-20T07:40:21;101622.66;;;19.38;81.43
57990;BME280;58373;51.824;5.564;2022-08-20T07:42:47;101621.03;;;19.53;80.83
57990;BME280;58373;51.824;5.564;2022-08-20T07:45:15;101629.56;;;19.55;78.34
57990;BME280;58373;51.824;5.564;2022-08-20T07:47:43;101626.00;;;19.73;81.05
57990;BME280;58373;51.824;5.564;2022-08-20T07:50:12;101618.09;;;19.65;77.92
57990;BME280;58373;51.824;5.564;2022-08-20T07:52:38;101630.94;;;19.76;77.66
57990;BME280;58373;51.824;5.564;2022-08-20T07:55:09;101637.50;;;19.80;77.14
57990;BME280;58373;51.824;5.564;2022-08-20T07:57:36;101632.25;;;19.63;74.78
57990;BME280;58373;51.824;5.564;2022-08-20T08:00:05;101632.56;;;19.77;76.13
57990;BME280;58373;51.824;5.564;2022-08-20T08:02:32;101639.81;;;19.91;74.87
57990;BME280;58373;51.824;5.564;2022-08-20T08:04:59;101639.81;;;19.91;73.56
57990;BME280;58373;51.824;5.564;2022-08-20T08:07:26;101633.22;;;19.87;71.53
57990;BME280;58373;51.824;5.564;2022-08-20T08:09:52;101646.06;;;19.90;71.31
57990;BME280;58373;51.824;5.564;2022-08-20T08:12:19;101647.97;;;20.12;73.67
57990;BME280;58373;51.824;5.564;2022-08-20T08:14:46;101647.16;;;20.12;71.46
57990;BME280;58373;51.824;5.564;2022-08-20T08:17:13;101646.19;;;20.05;72.40
57990;BME280;58373;51.824;5.564;2022-08-20T08:19:42;101644.69;;;20.27;74.21
57990;BME280;58373;51.824;5.564;2022-08-20T08:22:11;101646.38;;;19.95;69.61
57990;BME280;58373;51.824;5.564;2022-08-20T08:24:38;101654.41;;;20.10;71.67
57990;BME280;58373;51.824;5.564;2022-08-20T08:27:04;101655.88;;;20.21;71.12
57990;BME280;58373;51.824;5.564;2022-08-20T08:29:29;101647.81;;;20.22;70.49
57990;BME280;58373;51.824;5.564;2022-08-20T08:31:55;101654.91;;;20.13;69.71
57990;BME280;58373;51.824;5.564;2022-08-20T08:34:21;101653.56;;;20.26;70.54
57990;BME280;58373;51.824;5.564;2022-08-20T08:36:50;101654.84;;;20.38;70.57
57990;BME280;58373;51.824;5.564;2022-08-20T08:39:15;101653.19;;;20.45;70.44
57990;BME280;58373;51.824;5.564;2022-08-20T08:41:44;101665.06;;;20.49;70.25
57990;BME280;58373;51.824;5.564;2022-08-20T08:44:27;101668.78;;;20.71;71.85
57990;BME280;58373;51.824;5.564;2022-08-20T08:46:57;101669.31;;;20.58;69.51
57990;BME280;58373;51.824;5.564;2022-08-20T08:49:26;101669.59;;;20.72;69.74
57990;BME280;58373;51.824;5.564;2022-08-20T08:51:58;101668.69;;;20.48;69.72
57990;BME280;58373;51.824;5.564;2022-08-20T08:54:27;101677.56;;;20.47;70.33
57990;BME280;58373;51.824;5.564;2022-08-20T08:56:54;101671.97;;;20.34;69.22
57990;BME280;58373;51.824;5.564;2022-08-20T08:59:20;101677.06;;;20.43;70.12
57990;BME280;58373;51.824;5.564;2022-08-20T09:01:50;101674.25;;;20.61;69.00
57990;BME280;58373;51.824;5.564;2022-08-20T09:04:18;101678.84;;;20.67;69.01
57990;BME280;58373;51.824;5.564;2022-08-20T09:06:47;101676.44;;;20.89;70.27
57990;BME280;58373;51.824;5.564;2022-08-20T09:09:26;101678.09;;;20.90;69.89
57990;BME280;58373;51.824;5.564;2022-08-20T09:11:55;101684.34;;;20.89;69.30
57990;BME280;58373;51.824;5.564;2022-08-20T09:14:22;101683.56;;;20.80;69.25
57990;BME280;58373;51.824;5.564;2022-08-20T09:16:51;101672.81;;;20.90;68.79
57990;BME280;58373;51.824;5.564;2022-08-20T09:19:16;101677.72;;;20.93;62.86
57990;BME280;58373;51.824;5.564;2022-08-20T09:21:42;101684.00;;;20.92;61.94
57990;BME280;58373;51.824;5.564;2022-08-20T09:24:07;101682.72;;;20.88;62.75
57990;BME280;58373;51.824;5.564;2022-08-20T09:26:32;101683.16;;;21.00;63.47
57990;BME280;58373;51.824;5.564;2022-08-20T09:28:58;101683.97;;;21.00;60.96
57990;BME280;58373;51.824;5.564;2022-08-20T09:31:23;101686.69;;;21.15;63.84
57990;BME280;58373;51.824;5.564;2022-08-20T09:33:50;101682.59;;;21.12;62.33
57990;BME280;58373;51.824;5.564;2022-08-20T09:36:15;101684.66;;;21.25;62.33
57990;BME280;58373;51.824;5.564;2022-08-20T09:38:41;101681.81;;;21.27;61.29
57990;BME280;58373;51.824;5.564;2022-08-20T09:41:06;101678.31;;;21.42;60.12
57990;BME280;58373;51.824;5.564;2022-08-20T09:43:32;101680.19;;;21.34;56.79
57990;BME280;58373;51.824;5.564;2022-08-20T09:45:57;101676.06;;;21.54;59.22
57990;BME280;58373;51.824;5.564;2022-08-20T09:48:22;101676.28;;;21.67;56.10
57990;BME280;58373;51.824;5.564;2022-08-20T09:50:49;101679.59;;;21.69;53.92
57990;BME280;58373;51.824;5.564;2022-08-20T09:53:16;101682.22;;;21.69;55.72
57990;BME280;58373;51.824;5.564;2022-08-20T09:55:44;101676.50;;;22.04;56.39
57990;BME280;58373;51.824;5.564;2022-08-20T09:58:41;101675.28;;;22.06;59.09
57990;BME280;58373;51.824;5.564;2022-08-20T10:01:12;101673.88;;;22.18;56.24
57990;BME280;58373;51.824;5.564;2022-08-20T10:03:41;101679.38;;;22.32;57.01
57990;BME280;58373;51.824;5.564;2022-08-20T10:06:07;101677.00;;;22.37;56.42
57990;BME280;58373;51.824;5.564;2022-08-20T10:08:33;101675.09;;;22.45;55.63
57990;BME280;58373;51.824;5.564;2022-08-20T10:10:59;101682.09;;;22.23;52.84
57990;BME280;58373;51.824;5.564;2022-08-20T10:13:24;101678.28;;;22.41;53.53
57990;BME280;58373;51.824;5.564;2022-08-20T10:15:50;101675.00;;;22.39;53.07
57990;BME280;58373;51.824;5.564;2022-08-20T10:18:15;101685.47;;;22.62;53.73
57990;BME280;58373;51.824;5.564;2022-08-20T10:20:41;101682.63;;;22.78;52.26
57990;BME280;58373;51.824;5.564;2022-08-20T10:23:06;101695.78;;;22.71;52.00
57990;BME280;58373;51.824;5.564;2022-08-20T10:25:32;101688.31;;;22.90;49.52
57990;BME280;58373;51.824;5.564;2022-08-20T10:27:58;101693.38;;;22.76;47.63
57990;BME280;58373;51.824;5.564;2022-08-20T10:30:23;101691.41;;;22.78;49.28
57990;BME280;58373;51.824;5.564;2022-08-20T10:32:49;101686.38;;;22.69;47.62
57990;BME280;58373;51.824;5.564;2022-08-20T10:35:14;101684.38;;;23.00;47.94
57990;BME280;58373;51.824;5.564;2022-08-20T10:37:39;101681.13;;;23.05;47.44
57990;BME280;58373;51.824;5.564;2022-08-20T10:40:06;101684.78;;;23.04;46.60
57990;BME280;58373;51.824;5.564;2022-08-20T10:42:32;101683.63;;;23.07;46.08
57990;BME280;58373;51.824;5.564;2022-08-20T10:44:57;101702.09;;;23.21;46.81
57990;BME280;58373;51.824;5.564;2022-08-20T10:47:26;101692.72;;;23.19;44.97
57990;BME280;58373;51.824;5.564;2022-08-20T10:49:54;101693.31;;;23.21;44.06
57990;BME280;58373;51.824;5.564;2022-08-20T10:52:21;101689.66;;;23.00;44.89
57990;BME280;58373;51.824;5.564;2022-08-20T10:54:47;101694.13;;;22.70;45.58
57990;BME280;58373;51.824;5.564;2022-08-20T10:57:17;101689.84;;;22.84;47.37
57990;BME280;58373;51.824;5.564;2022-08-20T10:59:45;101688.63;;;22.87;48.32
57990;BME280;58373;51.824;5.564;2022-08-20T11:02:11;101687.75;;;22.79;44.13
57990;BME280;58373;51.824;5.564;2022-08-20T11:04:37;101687.16;;;23.14;46.30
57990;BME280;58373;51.824;5.564;2022-08-20T11:07:18;101687.47;;;23.25;46.39
57990;BME280;58373;51.824;5.564;2022-08-20T11:09:45;101698.72;;;23.49;44.38
57990;BME280;58373;51.824;5.564;2022-08-20T11:12:11;101692.41;;;23.28;44.52
57990;BME280;58373;51.824;5.564;2022-08-20T11:14:37;101693.28;;;23.36;44.33
57990;BME280;58373;51.824;5.564;2022-08-20T11:17:03;101691.88;;;23.18;42.95
57990;BME280;58373;51.824;5.564;2022-08-20T11:19:28;101690.50;;;23.44;44.74
57990;BME280;58373;51.824;5.564;2022-08-20T11:21:54;101694.50;;;23.76;43.46
57990;BME280;58373;51.824;5.564;2022-08-20T11:24:19;101695.06;;;23.50;43.43
57990;BME280;58373;51.824;5.564;2022-08-20T11:26:46;101699.63;;;23.77;45.10
57990;BME280;58373;51.824;5.564;2022-08-20T11:29:13;101689.88;;;23.84;44.30
57990;BME280;58373;51.824;5.564;2022-08-20T11:31:38;101698.81;;;24.05;41.95
57990;BME280;58373;51.824;5.564;2022-08-20T11:34:04;101691.13;;;24.10;42.76
57990;BME280;58373;51.824;5.564;2022-08-20T11:36:29;101701.72;;;24.10;41.59
57990;BME280;58373;51.824;5.564;2022-08-20T11:38:55;101701.09;;;24.36;42.99
57990;BME280;58373;51.824;5.564;2022-08-20T11:41:21;101703.59;;;24.44;41.90
57990;BME280;58373;51.824;5.564;2022-08-20T11:43:46;101709.59;;;24.31;41.20
57990;BME280;58373;51.824;5.564;2022-08-20T11:46:11;101711.56;;;24.44;41.96
57990;BME280;58373;51.824;5.564;2022-08-20T11:48:37;101698.81;;;24.68;42.83
57990;BME280;58373;51.824;5.564;2022-08-20T11:51:02;101701.25;;;24.62;40.88
57990;BME280;58373;51.824;5.564;2022-08-20T11:53:27;101706.63;;;24.82;41.20
57990;BME280;58373;51.824;5.564;2022-08-20T11:55:53;101706.72;;;25.02;41.81
57990;BME280;58373;51.824;5.564;2022-08-20T11:58:18;101705.00;;;24.81;40.86
57990;BME280;58373;51.824;5.564;2022-08-20T12:00:44;101700.19;;;24.57;39.39
57990;BME280;58373;51.824;5.564;2022-08-20T12:03:10;101696.50;;;24.51;40.37
57990;BME280;58373;51.824;5.564;2022-08-20T12:05:37;101703.69;;;24.64;40.80
57990;BME280;58373;51.824;5.564;2022-08-20T12:08:03;101692.28;;;24.70;41.90
57990;BME280;58373;51.824;5.564;2022-08-20T12:10:28;101686.19;;;24.76;41.26
57990;BME280;58373;51.824;5.564;2022-08-20T12:12:55;101695.16;;;24.75;41.71
57990;BME280;58373;51.824;5.564;2022-08-20T12:15:21;101687.91;;;24.90;40.26
57990;BME280;58373;51.824;5.564;2022-08-20T12:17:46;101690.69;;;24.82;39.93
57990;BME280;58373;51.824;5.564;2022-08-20T12:20:13;101686.13;;;25.11;38.92
57990;BME280;58373;51.824;5.564;2022-08-20T12:22:39;101681.19;;;24.95;38.18
57990;BME280;58373;51.824;5.564;2022-08-20T12:25:06;101691.16;;;24.93;38.31
57990;BME280;58373;51.824;5.564;2022-08-20T12:27:33;101685.00;;;24.85;39.17
57990;BME280;58373;51.824;5.564;2022-08-20T12:30:02;101689.72;;;24.90;39.30
57990;BME280;58373;51.824;5.564;2022-08-20T12:32:29;101685.06;;;24.99;39.03
57990;BME280;58373;51.824;5.564;2022-08-20T12:34:56;101670.47;;;25.29;39.25
57990;BME280;58373;51.824;5.564;2022-08-20T12:37:23;101679.03;;;25.31;39.38
57990;BME280;58373;51.824;5.564;2022-08-20T12:39:51;101681.53;;;25.53;42.07
57990;BME280;58373;51.824;5.564;2022-08-20T12:42:17;101685.00;;;25.47;39.03
57990;BME280;58373;51.824;5.564;2022-08-20T12:44:42;101680.28;;;25.49;39.49
57990;BME280;58373;51.824;5.564;2022-08-20T12:47:19;101680.69;;;25.32;39.90
57990;BME280;58373;51.824;5.564;2022-08-20T12:49:48;101691.28;;;25.19;39.21
57990;BME280;58373;51.824;5.564;2022-08-20T12:52:15;101684.34;;;25.25;39.38
57990;BME280;58373;51.824;5.564;2022-08-20T12:54:41;101687.56;;;25.07;38.78
57990;BME280;58373;51.824;5.564;2022-08-20T12:57:21;101689.41;;;25.06;39.77
57990;BME280;58373;51.824;5.564;2022-08-20T12:59:47;101689.06;;;25.29;39.43
57990;BME280;58373;51.824;5.564;2022-08-20T13:02:12;101687.84;;;25.38;40.71